Terminal Aerodrome Forecast
Issued by NWS

Home | Current Version | Previous Version | Text Only | Print | Product List | Glossary On
Versions: 1 2 3 4 5 6 7 8 9 10 11 12 13
000
FTUS45 KABQ 010536
TAFFMN
TAF
KFMN 010536Z 0106/0206 09006KT P6SM VCSH BKN100
     FM010800 08006KT P6SM SCT060 BKN100
     FM012100 26006KT P6SM VCTS SCT060CB BKN100
     FM020100 09009KT P6SM VCSH SCT060 BKN090=

USA.gov is the U.S. government's official web portal to all federal, state and local government web resources and services.